Flight Track Log - Related Links

Times and Time Zones

All times are in EST time to prevent confusion due to time zone crossing. See the RPA4946 flight status page for this flight to view local times or setup timezone preferences in your user account.

Time Position Orientation Groundspeed Altitude Reporting Facility
EST Latitude Longitude Course Direction KTS MPH feet Rate Location/Type
Sun 08:14:28 PM 39.1214 -108.6458 242° Southwest 181 208 9,300  Level Denver Center
Sun 08:15:30 PM 39.0794 -108.6075 145° Southeast 211 243 11,300 1,839 Climbing Denver Center
Sun 08:16:32 PM 39.0503 -108.5414 120° Southeast 213 245 13,100 1,742 Climbing Denver Center
Sun 08:17:34 PM 39.0236 -108.4619 113° Southeast 226 260 14,900 1,742 Climbing Denver Center
Sun 08:18:36 PM 38.9978 -108.3783 112° Southeast 238 274 16,700 1,317 Climbing Denver Center
Sun 08:19:00 PM 39.2576 -107.8748 113° Southeast  Level Estimated
Sun 08:19:37 PM 38.9933 -108.2869 94° East 260 299 17,600  Level Denver Center
Sun 08:20:39 PM 38.9889 -108.1800 93° East 290 334 18,600 1,113 Climbing Denver Center
Sun 08:21:41 PM 38.9853 -108.0778 93° East 296 341 19,900 1,161 Climbing Denver Center
Sun 08:22:43 PM 38.9808 -107.9569 93° East 302 348 21,000 823 Climbing Denver Center
Sun 08:23:45 PM 38.9761 -107.8503 93° East 309 356 21,600 732 Climbing Denver Center
Sun 08:24:46 PM 38.9725 -107.7219 92° East 318 366 22,500 683 Climbing Denver Center
Sun 08:25:48 PM 38.9692 -107.6100 92° East 322 371 23,000 242 Climbing Denver Center
Sun 08:26:50 PM 38.9633 -107.4711 93° East 342 394 23,000  Level Denver Center
Sun 08:27:52 PM 38.9583 -107.3469 93° East 355 409 23,000  Level Denver Center
Sun 08:28:54 PM 38.9536 -107.2217 93° East 364 419 23,000  Level Denver Center
Sun 08:29:55 PM 38.9469 -107.0736 93° East 369 425 23,000  Level Denver Center
Sun 08:30:57 PM 38.9414 -106.9458 93° East 371 427 23,000  Level Denver Center
Sun 08:31:59 PM 38.9347 -106.7969 93° East 373 429 23,000  Level Denver Center
Sun 08:33:00 PM 38.9289 -106.6692 93° East 373 429 23,000  Level Denver Center
Sun 08:34:02 PM 38.9211 -106.5189 94° East 375 432 23,000  Level Denver Center
Sun 08:35:04 PM 38.9161 -106.3911 93° East 375 432 23,000  Level Denver Center
Sun 08:36:06 PM 38.9086 -106.2633 94° East 375 432 23,000  Level Denver Center
Sun 08:37:19 PM 38.9025 -106.1208 93° East 375 432 23,000  Level Denver Center
Sun 08:38:21 PM 38.8944 -105.9622 94° East 375 432 23,000  Level Denver Center
Sun 08:39:23 PM 38.9139 -105.8381 79° East 368 423 23,000 -339 Level Denver Center
Sun 08:40:25 PM 38.9794 -105.7328 51° Northeast 352 405 22,300 -1,171 Descending Denver Center
Sun 08:41:26 PM 39.0539 -105.6242 49° Northeast 356 410 20,600 -1,512 Descending Denver Center
Sun 08:42:28 PM 39.1169 -105.5247 51° Northeast 368 423 19,200 -1,452 Descending Denver Center
Sun 08:43:30 PM 39.1894 -105.4114 50° Northeast 382 440 17,600 -1,500 Descending Denver Center
Sun 08:44:32 PM 39.2531 -105.3153 49° Northeast 350 403 16,100 -711 Descending Denver Center
Sun 08:45:45 PM 39.3081 -105.2264 51° Northeast 322 371 16,000 -444 Descending Denver Center
Sun 08:46:47 PM 39.3922 -105.1208 44° Northeast 330 380 15,100 -968 Descending Denver Center
Sun 08:47:49 PM 39.4642 -105.0411 41° Northeast 342 394 14,000 -1,024 Descending Denver Center
Sun 08:48:50 PM 39.5369 -104.9650 39° Northeast 338 389 13,000 -488 Descending Denver Center
Sun 08:49:52 PM 39.6117 -104.8817 41° Northeast 332 382 13,000  Level Denver Center
Sun 08:50:54 PM 39.6908 -104.8194 31° Northeast 342 394 13,000 -439 Level Denver Center
Sun 08:51:55 PM 39.7789 -104.8247 357° North 318 366 12,100 -927 Descending Denver Center
Sun 08:52:57 PM 39.8628 -104.8283 358° North 299 344 11,100 -871 Descending Denver Center
Sun 08:53:59 PM 39.9389 -104.8325 358° North 252 290 10,300 -1,306 Descending Denver Center
Sun 08:55:01 PM 40.0050 -104.8394 355° North 241 277 8,400 -1,317 Descending Denver Center
Sun 08:56:02 PM 40.0258 -104.7739 67° East 227 261 7,600 -732 Descending Denver Center
Sun 08:57:04 PM 39.9781 -104.7217 140° Southeast 207 238 6,900 -683 Descending Denver Center
Sun 08:58:05 PM 39.9367 -104.6967 155° Southeast 156 180 6,200 -683 Descending Denver Center
Sun 08:59:07 PM 39.9019 -104.6958 179° South 129 148 5,500 -677 Descending Denver Center
Sun 09:01:00 PM 39.8617 -104.6732 111° Southeast  Level Estimated
Sun 09:08:00 PM 39.8617 -104.6732 111° Southeast  Level Estimated
Sun 09:09:00 PM 39.8617 -104.6732 111° Southeast  Level Estimated

Login

Don't have an account? Register now (free) for customized features, flight alerts, and more!